createdAt,value
2024-01-30T00:00:26.156Z,14.73
2024-01-30T00:03:01.622Z,19.92
2024-01-30T00:05:40.552Z,28.17
2024-01-30T00:08:25.648Z,21.17
2024-01-30T00:11:06.657Z,18.45
2024-01-30T00:13:43.933Z,17.17
2024-01-30T00:16:25.743Z,14.95
2024-01-30T00:19:04.932Z,14.10
2024-01-30T00:21:44.924Z,14.90
2024-01-30T00:24:19.187Z,14.70
2024-01-30T00:26:57.226Z,19.38
2024-01-30T00:29:35.254Z,24.40
2024-01-30T00:32:11.744Z,25.87
2024-01-30T00:34:48.746Z,29.60
2024-01-30T00:37:24.993Z,28.43
2024-01-30T00:40:00.494Z,25.93
2024-01-30T00:42:39.092Z,21.02
2024-01-30T00:45:20.694Z,19.05
2024-01-30T00:47:56.350Z,18.90
2024-01-30T00:50:33.103Z,16.25
2024-01-30T00:53:11.087Z,18.35
2024-01-30T00:55:46.183Z,16.50
2024-01-30T00:58:23.789Z,12.60
2024-01-30T01:00:57.328Z,11.63
2024-01-30T01:03:34.560Z,11.50
2024-01-30T01:06:10.339Z,11.05
2024-01-30T01:08:44.930Z,10.98
2024-01-30T01:11:20.133Z,11.40
2024-01-30T01:13:58.305Z,11.53
2024-01-30T01:16:34.213Z,10.77
2024-01-30T01:19:08.993Z,10.90
2024-01-30T01:21:44.416Z,10.23
2024-01-30T01:24:18.893Z,11.07
2024-01-30T01:26:53.953Z,12.70
2024-01-30T01:29:32.865Z,12.90
2024-01-30T01:32:08.397Z,11.27
2024-01-30T01:34:43.453Z,10.70
2024-01-30T01:37:17.828Z,10.27
2024-01-30T01:39:52.959Z,10.65
2024-01-30T01:42:27.739Z,10.60
2024-01-30T01:45:05.467Z,12.25
2024-01-30T01:47:40.062Z,12.40
2024-01-30T01:50:16.297Z,11.18
2024-01-30T01:52:54.431Z,10.98
2024-01-30T01:55:30.031Z,11.25
2024-01-30T01:58:05.173Z,12.00
2024-01-30T02:00:46.337Z,11.97
2024-01-30T02:03:18.940Z,10.40
2024-01-30T02:05:53.947Z,10.05
2024-01-30T02:08:29.278Z,10.20
2024-01-30T02:11:04.191Z,9.43
2024-01-30T02:13:39.071Z,8.82
2024-01-30T02:16:16.908Z,8.40
2024-01-30T02:18:52.035Z,8.80
2024-01-30T02:21:29.868Z,10.23
2024-01-30T02:24:08.164Z,8.48
2024-01-30T02:26:43.358Z,8.37
2024-01-30T02:29:22.524Z,8.35
2024-01-30T02:31:55.532Z,9.05
2024-01-30T02:34:30.730Z,8.15
2024-01-30T02:37:09.538Z,8.93
2024-01-30T02:39:44.855Z,8.18
2024-01-30T02:42:20.008Z,8.90
2024-01-30T02:44:55.292Z,7.53
2024-01-30T02:47:31.214Z,8.95
2024-01-30T02:50:06.519Z,8.87
2024-01-30T02:52:45.390Z,8.60
2024-01-30T02:55:22.324Z,8.63
2024-01-30T02:57:57.343Z,8.25
2024-01-30T03:00:32.559Z,8.25
2024-01-30T03:03:07.399Z,9.27
2024-01-30T03:05:42.979Z,7.35
2024-01-30T03:08:23.459Z,7.90
2024-01-30T03:10:59.061Z,8.33
2024-01-30T03:16:15.032Z,8.40
2024-01-30T03:18:52.046Z,7.53
2024-01-30T03:21:30.810Z,8.33
2024-01-30T03:24:11.493Z,8.23
2024-01-30T03:26:47.661Z,7.77
2024-01-30T03:29:23.496Z,7.95
2024-01-30T03:32:03.241Z,7.85
2024-01-30T03:34:39.953Z,9.20
2024-01-30T03:37:15.506Z,9.35
2024-01-30T03:39:52.678Z,8.52
2024-01-30T03:42:28.234Z,8.65
2024-01-30T03:45:05.980Z,8.43
2024-01-30T03:47:40.746Z,7.90
2024-01-30T03:50:16.315Z,7.95
2024-01-30T03:52:51.311Z,8.87
2024-01-30T03:55:31.006Z,7.77
2024-01-30T03:58:08.338Z,7.87
2024-01-30T04:00:43.565Z,8.48
2024-01-30T04:03:19.824Z,8.50
2024-01-30T04:05:56.230Z,8.80
2024-01-30T04:08:32.031Z,8.90
2024-01-30T04:11:16.002Z,8.37
2024-01-30T04:13:51.408Z,9.02
2024-01-30T04:16:33.988Z,8.98
2024-01-30T04:19:12.478Z,8.32
2024-01-30T04:21:47.745Z,8.85
2024-01-30T04:24:23.139Z,9.60
2024-01-30T04:27:04.688Z,8.10
2024-01-30T04:29:40.236Z,8.52
2024-01-30T04:32:15.141Z,9.38
2024-01-30T04:34:51.514Z,8.98
2024-01-30T04:37:27.539Z,9.30
2024-01-30T04:40:05.472Z,8.43
2024-01-30T04:42:44.656Z,9.65
2024-01-30T04:45:23.599Z,9.68
2024-01-30T04:47:59.617Z,9.10
2024-01-30T04:53:12.276Z,8.70
2024-01-30T04:55:47.059Z,9.98
2024-01-30T04:58:25.860Z,8.90
2024-01-30T05:01:03.263Z,9.73
2024-01-30T05:03:38.984Z,10.13
2024-01-30T05:06:12.715Z,10.35
2024-01-30T05:08:47.870Z,9.43
2024-01-30T05:11:23.330Z,10.13
2024-01-30T05:14:02.645Z,10.05
2024-01-30T05:16:37.793Z,9.38
2024-01-30T05:19:15.746Z,9.47
2024-01-30T05:21:51.600Z,10.73
2024-01-30T05:24:28.131Z,10.35
2024-01-30T05:27:04.344Z,10.10
2024-01-30T05:29:42.572Z,10.10
2024-01-30T05:32:18.068Z,10.23
2024-01-30T05:34:51.889Z,10.65
2024-01-30T05:37:31.169Z,9.68
2024-01-30T05:40:07.028Z,11.25
2024-01-30T05:42:42.061Z,12.13
2024-01-30T05:45:24.856Z,9.13
2024-01-30T05:48:02.540Z,10.60
2024-01-30T05:50:41.527Z,10.68
2024-01-30T05:53:15.917Z,11.50
2024-01-30T05:55:54.220Z,11.40
2024-01-30T05:58:32.607Z,11.00
2024-01-30T06:01:22.347Z,10.50
2024-01-30T06:04:08.289Z,10.75
2024-01-30T06:09:51.487Z,15.88
2024-01-30T06:12:32.586Z,51.42
2024-01-30T06:15:27.590Z,43.70
2024-01-30T06:18:32.866Z,20.08
2024-01-30T06:21:30.857Z,17.50
2024-01-30T06:24:14.831Z,14.55
2024-01-30T06:26:51.333Z,13.25
2024-01-30T06:29:33.124Z,13.43
2024-01-30T06:32:13.783Z,12.55
2024-01-30T06:34:50.706Z,12.40
2024-01-30T06:37:30.299Z,14.50
2024-01-30T06:40:13.252Z,21.00
2024-01-30T06:42:55.323Z,17.60
2024-01-30T06:45:33.907Z,12.15
2024-01-30T06:48:09.094Z,17.00
2024-01-30T06:50:50.812Z,14.57
2024-01-30T06:53:35.300Z,12.60
2024-01-30T06:56:12.727Z,15.57
2024-01-30T06:58:53.350Z,13.50
2024-01-30T07:01:35.196Z,13.85
2024-01-30T07:04:13.253Z,13.10
2024-01-30T07:06:48.657Z,12.33
2024-01-30T07:09:33.237Z,13.18
2024-01-30T07:12:13.668Z,13.52
2024-01-30T07:15:00.547Z,11.70
2024-01-30T07:17:41.108Z,12.03
2024-01-30T07:20:33.387Z,12.45
2024-01-30T07:23:20.757Z,11.50
2024-01-30T07:35:10.819Z,14.55
2024-01-30T07:37:56.170Z,13.30
2024-01-30T07:40:34.863Z,13.55
2024-01-30T07:43:15.733Z,13.27
2024-01-30T07:45:50.468Z,12.10
2024-01-30T07:48:26.463Z,10.43
2024-01-30T07:51:05.602Z,10.70
2024-01-30T07:53:47.516Z,9.82
2024-01-30T07:56:24.729Z,11.48
2024-01-30T07:59:22.408Z,12.55
2024-01-30T08:02:02.275Z,14.40
2024-01-30T08:48:15.405Z,11.95
2024-01-30T08:50:56.367Z,11.80
2024-01-30T08:53:41.112Z,8.60
2024-01-30T09:05:11.723Z,5.05
2024-01-30T09:14:21.850Z,4.38
2024-01-30T09:17:01.257Z,5.13
2024-01-30T09:19:43.460Z,5.20
2024-01-30T09:31:14.482Z,5.35
2024-01-30T09:33:51.074Z,4.50
2024-01-30T09:36:30.079Z,5.10
2024-01-30T09:48:06.222Z,4.43
2024-01-30T09:50:47.026Z,4.35
2024-01-30T09:56:11.441Z,4.07
2024-01-30T10:01:40.964Z,3.80
2024-01-30T10:04:20.903Z,3.80
2024-01-30T10:06:56.957Z,4.50
2024-01-30T10:12:09.322Z,4.50
2024-01-30T10:14:49.354Z,3.55
2024-01-30T10:17:32.379Z,3.40
2024-01-30T10:20:16.574Z,3.58
2024-01-30T10:22:47.997Z,3.80
2024-01-30T10:25:24.022Z,3.85
2024-01-30T10:30:41.010Z,2.92
2024-01-30T10:33:23.754Z,3.58
2024-01-30T10:36:02.981Z,3.23
2024-01-30T10:38:40.785Z,3.27
2024-01-30T10:41:18.610Z,4.15
2024-01-30T10:44:00.706Z,3.10
2024-01-30T10:46:50.623Z,3.72
2024-01-30T10:49:28.671Z,3.78
2024-01-30T10:52:09.386Z,3.40
2024-01-30T10:54:42.215Z,3.20
2024-01-30T10:57:19.145Z,3.43
2024-01-30T11:00:00.645Z,5.60
2024-01-30T11:02:42.435Z,6.07
2024-01-30T11:05:17.700Z,6.23
2024-01-30T11:08:03.363Z,5.85
2024-01-30T11:10:38.729Z,5.23
2024-01-30T11:13:17.723Z,5.13
2024-01-30T11:15:56.730Z,3.97
2024-01-30T11:18:38.438Z,4.78
2024-01-30T11:21:13.414Z,4.45
2024-01-30T11:24:17.686Z,3.20
2024-01-30T11:27:36.181Z,3.17
2024-01-30T11:30:38.172Z,5.10
2024-01-30T11:33:36.384Z,3.13
2024-01-30T11:36:12.934Z,3.38
2024-01-30T11:38:51.964Z,3.50
2024-01-30T11:41:34.291Z,3.55
2024-01-30T11:44:26.596Z,3.80
2024-01-30T11:47:05.137Z,3.92
2024-01-30T11:50:01.393Z,3.92
2024-01-30T11:52:44.055Z,3.42
2024-01-30T11:55:37.361Z,4.40
2024-01-30T11:58:38.841Z,3.70
2024-01-30T12:01:24.185Z,4.22
2024-01-30T12:04:11.805Z,4.10
2024-01-30T12:06:51.661Z,4.00
2024-01-30T12:12:33.973Z,4.00
2024-01-30T12:15:16.244Z,4.15
2024-01-30T12:22:14.323Z,3.57
2024-01-30T12:24:58.402Z,3.13
2024-01-30T12:37:28.232Z,3.78
2024-01-30T12:49:44.912Z,3.80
2024-01-30T12:52:27.112Z,4.80
2024-01-30T12:55:06.996Z,3.50
2024-01-30T12:57:44.402Z,3.80
2024-01-30T13:00:22.143Z,4.10
2024-01-30T13:02:57.187Z,4.65
2024-01-30T13:05:35.542Z,3.65
2024-01-30T13:08:14.010Z,3.30
2024-01-30T13:10:50.782Z,3.97
2024-01-30T13:13:30.490Z,3.20
2024-01-30T13:16:06.591Z,3.30
2024-01-30T13:18:52.155Z,3.70
2024-01-30T13:21:33.662Z,3.55
2024-01-30T13:24:13.277Z,3.53
2024-01-30T13:26:48.267Z,3.20
2024-01-30T13:29:22.319Z,4.35
2024-01-30T13:31:57.658Z,4.55
2024-01-30T13:34:35.025Z,4.15
2024-01-30T13:37:12.916Z,4.43
2024-01-30T13:39:48.063Z,5.10
2024-01-30T13:42:26.262Z,3.53
2024-01-30T13:45:01.345Z,4.35
2024-01-30T13:47:36.113Z,3.67
2024-01-30T13:50:29.166Z,3.75
2024-01-30T13:53:17.069Z,4.28
2024-01-30T13:55:55.980Z,3.50
2024-01-30T13:58:42.827Z,3.92
2024-01-30T14:01:21.987Z,4.75
2024-01-30T14:04:15.864Z,3.97
2024-01-30T14:07:01.034Z,4.18
2024-01-30T14:09:45.939Z,4.20
2024-01-30T14:12:43.404Z,4.82
2024-01-30T14:15:23.862Z,5.13
2024-01-30T14:18:07.162Z,5.05
2024-01-30T14:20:43.189Z,5.77
2024-01-30T14:23:22.517Z,5.80
2024-01-30T14:26:08.317Z,5.05
2024-01-30T14:29:15.546Z,5.68
2024-01-30T14:32:01.349Z,4.50
2024-01-30T14:34:55.433Z,5.03
2024-01-30T14:37:49.454Z,5.05
2024-01-30T14:40:37.502Z,6.10
2024-01-30T14:46:33.905Z,5.03
2024-01-30T14:49:19.878Z,4.20
2024-01-30T14:52:06.168Z,4.35
2024-01-30T14:55:10.191Z,4.55
2024-01-30T14:57:54.736Z,4.53
2024-01-30T15:00:55.955Z,5.00
2024-01-30T15:03:39.578Z,4.75
2024-01-30T15:09:13.082Z,5.18
2024-01-30T15:11:54.159Z,4.85
2024-01-30T15:14:29.677Z,5.90
2024-01-30T15:17:08.654Z,6.13
2024-01-30T15:20:06.200Z,5.47
2024-01-30T15:22:44.499Z,5.20
2024-01-30T15:25:19.716Z,4.93
2024-01-30T15:27:58.243Z,5.70
2024-01-30T15:30:36.625Z,5.35
2024-01-30T15:33:20.630Z,5.82
2024-01-30T15:35:56.805Z,4.50
2024-01-30T15:38:34.747Z,5.72
2024-01-30T15:41:10.408Z,5.85
2024-01-30T15:43:50.711Z,5.40
2024-01-30T15:46:27.475Z,5.03
2024-01-30T15:49:05.893Z,5.55
2024-01-30T15:51:40.137Z,6.18
2024-01-30T15:54:19.068Z,6.18
2024-01-30T15:57:03.400Z,5.00
2024-01-30T15:59:42.277Z,5.85
2024-01-30T16:02:25.253Z,5.80
2024-01-30T16:05:18.850Z,6.13
2024-01-30T16:08:04.751Z,6.75
2024-01-30T16:10:59.522Z,5.38
2024-01-30T16:13:55.536Z,6.78
2024-01-30T16:17:04.573Z,5.90
2024-01-30T16:20:18.185Z,5.60
2024-01-30T16:23:20.305Z,6.45
2024-01-30T16:26:31.155Z,6.03
2024-01-30T16:29:14.073Z,5.43
2024-01-30T17:22:48.305Z,9.43
2024-01-30T17:25:25.115Z,10.05
2024-01-30T17:28:05.698Z,9.57
2024-01-30T17:30:42.545Z,9.90
2024-01-30T17:33:35.215Z,9.15
2024-01-30T17:36:17.354Z,8.85
2024-01-30T17:38:59.856Z,10.07
2024-01-30T17:42:00.615Z,9.15
2024-01-30T17:44:52.386Z,8.50
